Fort Huachuca, AZ

6:26 PM MST on July 26, 2017 (GMT -0700)
Sierra Vista Municipal-Libby Army Air Field | | Change Station

Elev 4718 ft 31.59 °N, 110.34 °W | Updated 28 minutes ago

Partly Cloudy
Partly Cloudy
77 °F
Feels Like 77 °F
N
8
Wind Variable Wind from South

Today
High -- | Low -- °F
--% Chance of Precip.
Yesterday
High -- | Low -- °F
Precip. -- in
Pressure 30.16 in
Visibility 10.0 miles
Clouds Few 27000 ft
Dew Point 65 °F
Humidity 67%
Rainfall 0.00 in
Snow Depth Not available.
5:33 AM 7:21 PM
Waxing Crescent, 17% visible
METAR KFHU 270058Z 18007KT 10SM FEW270 25/18 A3016 RMK AO2A SLPNO T02480182
Pressure 30.16 in
Visibility 10.0 miles
Clouds Few 27000 ft
Dew Point 65 °F
Humidity 67%
Rainfall 0.00 in
Snow Depth Not available.
5:33 AM 7:21 PM
Waxing Crescent, 17% visible
METAR KFHU 270058Z 18007KT 10SM FEW270 25/18 A3016 RMK AO2A SLPNO T02480182

Get Severe Weather Alerts

Thanks for signing up!

Be on the lookout for a verification email in your inbox.

You'll start receiving the daily forecast at 6 AM.

×

10-Day Weather Forecast

Almanac

Astronomy

Jul. 26, 2017 Rise Set
Actual Time
Civil Twilight
Nautical Twilight
Astronomical Twilight
Moon
Length of Visible Light
Length of Day
Tomorrow will be .
, % of the Moon is Illuminated

Today's Extremes

State Highs State Lows

Community

WunderPhotos

Category 6

Welcome to Category 6. This is the collective home for Weather Underground's featured writeups by Dr. Jeff Masters (right), Bob Henson (left), Chris Burt, and other regular contributors.

Nearby

Air Quality

  Air Quality AQ Index Pollutant
Not available.

Snow Depth

Station Depth Elevation

Earthquake Activity

City Distance Mag. Time & Date
Minimum magnitude displayed is 2.5.

Coastal Water Temperatures

Place Temperature

Stations

Nearby Weather Stations

Station Location Temp. Windchill Dew Point Humidity Wind Precip. Elev Updated Type
                   

Watches & Warnings

There are currently no watches in effect.